createdAt,value
2018-11-05T00:00:55.749Z,30.92
2018-11-05T00:03:26.662Z,28.27
2018-11-05T00:05:57.436Z,25.75
2018-11-05T00:08:28.214Z,25.70
2018-11-05T00:11:15.700Z,29.77
2018-11-05T00:13:46.436Z,22.65
2018-11-05T00:16:17.157Z,20.80
2018-11-05T00:18:47.825Z,26.02
2018-11-05T00:21:18.509Z,20.45
2018-11-05T00:23:50.678Z,20.90
2018-11-05T00:26:21.343Z,35.13
2018-11-05T00:28:52.103Z,18.80
2018-11-05T00:31:22.973Z,20.88
2018-11-05T00:33:53.703Z,26.70
2018-11-05T00:36:24.523Z,18.80
2018-11-05T00:38:55.308Z,24.12
2018-11-05T00:41:25.984Z,18.60
2018-11-05T00:43:56.660Z,22.02
2018-11-05T00:46:27.334Z,18.20
2018-11-05T00:48:58.084Z,17.82
2018-11-05T00:51:29.870Z,23.00
2018-11-05T00:54:00.552Z,18.85
2018-11-05T00:56:35.249Z,16.23
2018-11-05T00:59:08.075Z,20.02
2018-11-05T01:01:38.971Z,14.80
2018-11-05T01:04:10.543Z,18.07
2018-11-05T01:06:41.265Z,15.83
2018-11-05T01:09:11.943Z,14.13
2018-11-05T01:11:42.644Z,18.02
2018-11-05T01:14:13.361Z,17.45
2018-11-05T01:16:44.039Z,17.15
2018-11-05T01:19:14.729Z,25.08
2018-11-05T01:21:45.510Z,15.70
2018-11-05T01:24:16.166Z,18.92
2018-11-05T01:26:47.106Z,23.67
2018-11-05T01:29:17.898Z,16.05
2018-11-05T01:31:48.553Z,15.88
2018-11-05T01:34:19.289Z,14.10
2018-11-05T01:36:49.948Z,18.92
2018-11-05T01:39:20.669Z,20.23
2018-11-05T01:41:51.394Z,16.30
2018-11-05T01:44:22.076Z,12.45
2018-11-05T01:46:52.770Z,15.88
2018-11-05T01:49:23.457Z,14.18
2018-11-05T01:51:54.177Z,15.60
2018-11-05T01:54:24.819Z,15.95
2018-11-05T01:56:55.541Z,13.98
2018-11-05T01:59:27.014Z,20.43
2018-11-05T02:01:57.961Z,15.30
2018-11-05T02:04:28.759Z,15.20
2018-11-05T02:06:59.462Z,15.28
2018-11-05T02:09:30.247Z,11.63
2018-11-05T02:12:00.954Z,12.13
2018-11-05T02:14:36.543Z,11.70
2018-11-05T02:17:07.990Z,14.10
2018-11-05T02:19:38.964Z,13.28
2018-11-05T02:22:09.654Z,14.75
2018-11-05T02:24:41.620Z,13.60
2018-11-05T02:27:12.336Z,15.70
2018-11-05T02:29:44.016Z,11.90
2018-11-05T02:32:14.790Z,10.60
2018-11-05T02:34:46.087Z,11.63
2018-11-05T02:37:16.832Z,9.85
2018-11-05T02:39:47.397Z,13.30
2018-11-05T02:42:18.114Z,12.28
2018-11-05T02:44:48.829Z,12.75
2018-11-05T02:47:19.544Z,11.00
2018-11-05T02:49:50.311Z,10.55
2018-11-05T02:52:20.971Z,12.68
2018-11-05T02:54:51.776Z,10.63
2018-11-05T02:57:22.448Z,14.05
2018-11-05T02:59:53.143Z,11.93
2018-11-05T03:02:23.844Z,11.88
2018-11-05T03:04:54.480Z,7.70
2018-11-05T03:07:25.179Z,10.30
2018-11-05T03:09:55.922Z,9.28
2018-11-05T03:12:26.714Z,9.15
2018-11-05T03:14:57.405Z,8.55
2018-11-05T03:17:28.112Z,10.00
2018-11-05T03:19:58.899Z,10.40
2018-11-05T03:22:30.068Z,10.32
2018-11-05T03:25:00.800Z,9.58
2018-11-05T03:27:34.645Z,9.53
2018-11-05T03:30:15.168Z,10.48
2018-11-05T03:32:45.892Z,8.53
2018-11-05T03:35:16.709Z,7.72
2018-11-05T03:37:47.695Z,8.25
2018-11-05T03:40:18.364Z,8.58
2018-11-05T03:42:50.017Z,9.70
2018-11-05T03:45:20.730Z,8.33
2018-11-05T03:47:51.428Z,8.68
2018-11-05T03:50:22.340Z,7.00
2018-11-05T03:52:52.985Z,7.62
2018-11-05T03:55:23.850Z,7.05
2018-11-05T03:57:54.529Z,8.23
2018-11-05T04:00:26.687Z,10.63
2018-11-05T04:02:57.397Z,8.35
2018-11-05T04:05:28.056Z,10.65
2018-11-05T04:07:58.754Z,5.85
2018-11-05T04:10:29.421Z,6.25
2018-11-05T04:13:00.095Z,6.65
2018-11-05T04:15:32.836Z,7.20
2018-11-05T04:18:07.952Z,8.78
2018-11-05T04:20:38.688Z,7.70
2018-11-05T04:23:10.769Z,5.80
2018-11-05T04:25:41.520Z,7.28
2018-11-05T04:28:12.229Z,9.08
2018-11-05T04:30:42.972Z,8.25
2018-11-05T04:33:13.619Z,4.67
2018-11-05T04:35:44.583Z,8.10
2018-11-05T04:38:15.255Z,8.15
2018-11-05T04:40:47.031Z,5.87
2018-11-05T04:43:17.906Z,6.22
2018-11-05T04:45:48.673Z,5.65
2018-11-05T04:48:19.543Z,5.75
2018-11-05T04:50:50.489Z,7.92
2018-11-05T04:53:21.543Z,6.17
2018-11-05T04:55:52.242Z,5.45
2018-11-05T04:58:23.065Z,5.53
2018-11-05T05:00:53.768Z,7.87
2018-11-05T05:03:24.556Z,5.53
2018-11-05T05:05:55.237Z,4.35
2018-11-05T05:08:25.944Z,6.90
2018-11-05T05:10:56.624Z,7.55
2018-11-05T05:13:27.532Z,6.80
2018-11-05T05:15:58.159Z,7.95
2018-11-05T05:18:28.850Z,4.70
2018-11-05T05:20:59.968Z,7.37
2018-11-05T05:23:30.643Z,5.97
2018-11-05T05:26:07.033Z,5.28
2018-11-05T05:28:38.062Z,5.33
2018-11-05T05:31:08.704Z,6.05
2018-11-05T05:33:39.599Z,5.10
2018-11-05T05:36:10.555Z,5.78
2018-11-05T05:38:41.243Z,7.37
2018-11-05T05:41:12.761Z,5.00
2018-11-05T05:43:43.510Z,5.87
2018-11-05T05:46:14.203Z,6.70
2018-11-05T05:48:45.426Z,6.53
2018-11-05T05:51:16.184Z,7.05
2018-11-05T05:53:46.833Z,6.35
2018-11-05T05:56:17.531Z,3.77
2018-11-05T05:58:48.162Z,3.42
2018-11-05T06:01:18.902Z,5.00
2018-11-05T06:03:49.559Z,4.35
2018-11-05T06:06:20.358Z,5.80
2018-11-05T06:08:51.104Z,4.17
2018-11-05T06:11:22.205Z,4.53
2018-11-05T06:13:52.843Z,3.22
2018-11-05T06:16:23.628Z,5.25
2018-11-05T06:18:54.277Z,5.55
2018-11-05T06:21:24.966Z,4.95
2018-11-05T06:23:55.643Z,7.30
2018-11-05T06:26:26.353Z,6.28
2018-11-05T06:28:57.164Z,4.67
2018-11-05T06:31:27.840Z,6.47
2018-11-05T06:33:58.532Z,4.03
2018-11-05T06:36:29.367Z,4.55
2018-11-05T06:39:00.060Z,3.05
2018-11-05T06:41:33.202Z,3.10
2018-11-05T06:44:04.829Z,4.22
2018-11-05T06:46:35.496Z,3.27
2018-11-05T06:49:07.084Z,4.67
2018-11-05T06:51:37.757Z,3.95
2018-11-05T06:54:08.421Z,3.72
2018-11-05T06:56:39.180Z,3.75
2018-11-05T06:59:09.859Z,3.62
2018-11-05T07:01:40.547Z,5.53
2018-11-05T07:04:12.871Z,4.85
2018-11-05T07:06:43.546Z,4.85
2018-11-05T07:09:14.271Z,3.72
2018-11-05T07:11:45.005Z,4.87
2018-11-05T07:14:15.691Z,2.62
2018-11-05T07:16:46.365Z,5.47
2018-11-05T07:19:17.243Z,3.95
2018-11-05T07:21:47.901Z,4.25
2018-11-05T07:24:18.585Z,3.47
2018-11-05T07:26:49.373Z,6.58
2018-11-05T07:29:20.036Z,2.87
2018-11-05T07:31:50.760Z,2.65
2018-11-05T07:34:21.486Z,3.50
2018-11-05T07:36:52.138Z,3.00
2018-11-05T07:39:22.797Z,6.22
2018-11-05T07:41:55.340Z,3.27
2018-11-05T07:44:25.992Z,4.53
2018-11-05T07:46:56.764Z,4.30
2018-11-05T07:49:27.426Z,5.20
2018-11-05T07:51:58.636Z,2.55
2018-11-05T07:54:29.632Z,4.05
2018-11-05T07:57:01.001Z,5.37
2018-11-05T07:59:33.095Z,3.35
2018-11-05T08:02:06.232Z,3.60
2018-11-05T08:04:36.848Z,3.70
2018-11-05T08:07:11.267Z,3.02
2018-11-05T08:09:42.596Z,3.12
2018-11-05T08:12:13.409Z,3.33
2018-11-05T08:14:44.122Z,4.30
2018-11-05T08:17:14.795Z,7.15
2018-11-05T08:19:45.445Z,2.77
2018-11-05T08:22:16.147Z,4.33
2018-11-05T08:24:47.096Z,4.58
2018-11-05T08:27:17.825Z,5.78
2018-11-05T08:29:48.621Z,4.87
2018-11-05T08:32:19.348Z,6.08
2018-11-05T08:34:50.551Z,6.03
2018-11-05T08:37:21.204Z,6.03
2018-11-05T08:39:52.539Z,4.85
2018-11-05T08:42:24.244Z,6.42
2018-11-05T08:44:54.966Z,3.83
2018-11-05T08:47:25.655Z,7.75
2018-11-05T08:49:56.335Z,4.83
2018-11-05T08:52:27.063Z,4.78
2018-11-05T08:54:57.804Z,4.65
2018-11-05T08:57:28.552Z,5.87
2018-11-05T08:59:59.425Z,7.10
2018-11-05T09:02:30.056Z,4.87
2018-11-05T09:05:00.794Z,5.95
2018-11-05T09:07:34.002Z,6.33
2018-11-05T09:10:10.833Z,5.33
2018-11-05T09:25:50.192Z,3.47
2018-11-05T09:28:20.828Z,5.10
2018-11-05T09:30:51.734Z,1.50
2018-11-05T09:33:22.426Z,7.28
2018-11-05T09:35:53.103Z,2.27
2018-11-05T09:38:23.836Z,5.78
2018-11-05T09:40:54.528Z,4.87
2018-11-05T09:43:25.805Z,5.62
2018-11-05T09:45:56.448Z,5.70
2018-11-05T09:48:29.127Z,4.97
2018-11-05T09:50:59.898Z,5.62
2018-11-05T09:53:30.580Z,4.15
2018-11-05T09:56:06.587Z,3.10
2018-11-05T09:58:37.586Z,3.30
2018-11-05T10:01:08.226Z,6.33
2018-11-05T10:03:44.078Z,4.08
2018-11-05T10:06:14.656Z,2.47
2018-11-05T10:08:45.403Z,3.67
2018-11-05T10:11:16.136Z,2.47
2018-11-05T10:13:46.958Z,4.20
2018-11-05T10:16:18.226Z,4.28
2018-11-05T10:18:48.893Z,3.50
2018-11-05T10:21:19.572Z,5.33
2018-11-05T10:23:50.243Z,6.55
2018-11-05T10:26:20.999Z,3.25
2018-11-05T10:28:51.996Z,5.45
2018-11-05T10:31:24.630Z,4.17
2018-11-05T10:33:55.802Z,2.40
2018-11-05T10:36:27.425Z,3.70
2018-11-05T10:38:58.124Z,3.50
2018-11-05T10:41:28.838Z,4.62
2018-11-05T10:43:59.510Z,5.33
2018-11-05T10:46:30.192Z,4.22
2018-11-05T10:49:01.018Z,4.10
2018-11-05T10:51:33.904Z,5.33
2018-11-05T10:54:07.957Z,3.58
2018-11-05T10:56:38.714Z,5.95
2018-11-05T10:59:09.753Z,5.00
2018-11-05T11:01:45.778Z,4.03
2018-11-05T11:04:21.620Z,4.35
2018-11-05T11:06:52.491Z,4.08
2018-11-05T11:09:23.169Z,4.42
2018-11-05T11:11:53.929Z,4.47
2018-11-05T11:14:24.607Z,4.25
2018-11-05T11:16:56.060Z,6.47
2018-11-05T11:19:26.761Z,6.97
2018-11-05T11:21:58.063Z,4.37
2018-11-05T11:24:28.697Z,2.85
2018-11-05T11:26:59.309Z,3.50
2018-11-05T11:29:30.312Z,3.58
2018-11-05T11:32:00.945Z,5.37
2018-11-05T11:34:35.798Z,6.00
2018-11-05T11:37:07.167Z,2.75
2018-11-05T11:39:37.863Z,3.70
2018-11-05T11:42:08.579Z,4.62
2018-11-05T11:44:40.175Z,5.20
2018-11-05T11:47:10.839Z,3.95
2018-11-05T11:49:42.391Z,6.30
2018-11-05T11:52:13.234Z,3.50
2018-11-05T11:54:43.888Z,7.60
2018-11-05T11:57:15.481Z,3.33
2018-11-05T11:59:46.812Z,5.20
2018-11-05T12:02:18.631Z,3.65
2018-11-05T12:04:49.229Z,5.60
2018-11-05T12:07:20.001Z,4.75
2018-11-05T12:09:50.749Z,4.35
2018-11-05T12:12:21.431Z,3.42
2018-11-05T12:14:52.281Z,4.30
2018-11-05T12:17:23.052Z,3.22
2018-11-05T12:19:53.731Z,6.03
2018-11-05T12:22:25.460Z,4.42
2018-11-05T12:24:56.356Z,4.45
2018-11-05T12:27:26.983Z,3.75
2018-11-05T12:29:57.837Z,6.67
2018-11-05T12:32:28.549Z,4.80
2018-11-05T12:34:59.202Z,5.92
2018-11-05T12:37:29.912Z,5.08
2018-11-05T12:40:00.589Z,5.70
2018-11-05T12:42:35.893Z,5.83
2018-11-05T12:45:08.010Z,6.78
2018-11-05T12:47:38.943Z,7.10
2018-11-05T12:50:13.132Z,6.92
2018-11-05T12:52:44.836Z,3.67
2018-11-05T12:55:15.519Z,6.22
2018-11-05T12:57:46.414Z,7.58
2018-11-05T13:00:21.323Z,11.73
2018-11-05T13:02:57.911Z,14.85
2018-11-05T13:05:30.495Z,9.80
2018-11-05T13:08:03.351Z,13.08
2018-11-05T13:10:34.004Z,15.20
2018-11-05T13:13:08.053Z,17.35
2018-11-05T13:15:38.702Z,15.43
2018-11-05T13:18:09.424Z,13.85
2018-11-05T13:20:40.221Z,10.70
2018-11-05T13:23:10.895Z,12.90
2018-11-05T13:25:41.611Z,9.53
2018-11-05T13:28:12.363Z,13.15
2018-11-05T13:30:43.150Z,8.93
2018-11-05T13:33:13.799Z,9.90
2018-11-05T13:35:45.415Z,13.18
2018-11-05T13:38:17.362Z,12.73
2018-11-05T13:40:47.528Z,9.38
2018-11-05T13:43:18.244Z,13.53
2018-11-05T13:45:50.222Z,9.60
2018-11-05T13:48:21.285Z,8.70
2018-11-05T13:50:51.668Z,13.62
2018-11-05T13:53:22.557Z,8.00
2018-11-05T13:55:53.237Z,6.80
2018-11-05T13:58:23.880Z,6.45
2018-11-05T14:00:54.617Z,12.20
2018-11-05T14:03:25.281Z,7.97
2018-11-05T14:05:56.122Z,4.95
2018-11-05T14:08:26.855Z,11.78
2018-11-05T14:10:57.798Z,10.32
2018-11-05T14:13:28.444Z,6.67
2018-11-05T14:15:59.162Z,6.30
2018-11-05T14:18:29.826Z,6.90
2018-11-05T14:21:00.618Z,10.00
2018-11-05T14:23:33.200Z,8.43
2018-11-05T14:26:07.422Z,8.33
2018-11-05T14:28:38.527Z,5.35
2018-11-05T14:31:08.944Z,8.00
2018-11-05T14:33:39.625Z,8.25
2018-11-05T14:36:11.156Z,8.90
2018-11-05T14:38:41.994Z,9.10
2018-11-05T14:41:12.573Z,8.88
2018-11-05T14:43:43.325Z,6.20
2018-11-05T14:46:14.055Z,11.45
2018-11-05T14:48:44.792Z,9.88
2018-11-05T14:51:16.423Z,6.00
2018-11-05T14:53:47.180Z,6.80
2018-11-05T14:56:18.010Z,10.15
2018-11-05T14:58:48.644Z,8.33
2018-11-05T15:01:19.536Z,8.53
2018-11-05T15:03:50.183Z,10.15
2018-11-05T15:06:20.905Z,9.78
2018-11-05T15:08:51.579Z,8.78
2018-11-05T15:11:22.930Z,10.63
2018-11-05T15:13:53.585Z,11.53
2018-11-05T15:16:24.292Z,6.20
2018-11-05T15:18:55.372Z,12.25
2018-11-05T15:21:25.753Z,6.60
2018-11-05T15:23:56.920Z,6.75
2018-11-05T15:26:27.659Z,6.85
2018-11-05T15:28:58.723Z,9.23
2018-11-05T15:31:29.426Z,8.53
2018-11-05T15:34:00.233Z,7.72
2018-11-05T15:36:34.615Z,9.68
2018-11-05T15:39:09.779Z,17.02
2018-11-05T15:41:40.500Z,11.33
2018-11-05T15:44:11.900Z,14.28
2018-11-05T15:46:42.825Z,10.05
2018-11-05T15:49:13.477Z,14.03
2018-11-05T15:51:44.518Z,17.73
2018-11-05T15:54:15.162Z,20.92
2018-11-05T15:56:45.788Z,39.15
2018-11-05T15:59:18.203Z,20.82
2018-11-05T16:01:49.104Z,20.25
2018-11-05T16:04:19.844Z,17.62
2018-11-05T16:06:50.664Z,14.87
2018-11-05T16:09:21.460Z,18.05
2018-11-05T16:11:52.140Z,10.13
2018-11-05T16:14:23.226Z,14.47
2018-11-05T16:16:54.226Z,13.90
2018-11-05T16:19:24.900Z,12.82
2018-11-05T16:21:55.632Z,12.47
2018-11-05T16:24:26.612Z,14.10
2018-11-05T16:26:57.928Z,19.65
2018-11-05T16:29:28.617Z,16.15
2018-11-05T16:31:59.246Z,7.67
2018-11-05T16:34:29.975Z,11.73
2018-11-05T16:37:00.817Z,11.75
2018-11-05T16:39:34.737Z,15.65
2018-11-05T16:42:06.015Z,11.85
2018-11-05T16:44:36.759Z,8.18
2018-11-05T16:47:07.452Z,14.90
2018-11-05T16:49:39.243Z,13.60
2018-11-05T16:52:10.849Z,16.07
2018-11-05T16:54:41.580Z,11.85
2018-11-05T16:57:12.307Z,8.85
2018-11-05T16:59:43.026Z,12.10
2018-11-05T17:02:16.016Z,22.77
2018-11-05T17:04:47.542Z,9.43
2018-11-05T17:07:19.052Z,40.50
2018-11-05T17:09:49.698Z,13.55
2018-11-05T17:12:20.424Z,13.83
2018-11-05T17:14:51.171Z,14.40
2018-11-05T17:17:21.928Z,21.07
2018-11-05T17:19:52.664Z,18.85
2018-11-05T17:22:23.415Z,13.25
2018-11-05T17:24:54.136Z,15.23
2018-11-05T17:27:24.880Z,11.73
2018-11-05T17:29:55.646Z,15.25
2018-11-05T17:46:57.972Z,12.03
2018-11-05T17:49:28.643Z,14.18
2018-11-05T17:51:59.336Z,11.90
2018-11-05T17:54:30.415Z,11.78
2018-11-05T17:57:01.145Z,12.00
2018-11-05T17:59:41.373Z,17.80
2018-11-05T18:02:16.338Z,12.55
2018-11-05T18:04:48.067Z,12.88
2018-11-05T18:07:18.754Z,14.07
2018-11-05T18:09:49.961Z,14.80
2018-11-05T18:12:20.870Z,15.00
2018-11-05T18:14:51.636Z,12.40
2018-11-05T18:17:22.377Z,15.65
2018-11-05T18:19:53.153Z,14.00
2018-11-05T18:22:23.976Z,13.18
2018-11-05T18:24:54.880Z,12.93
2018-11-05T18:27:25.536Z,10.05
2018-11-05T18:29:56.281Z,10.00
2018-11-05T18:32:26.946Z,15.10
2018-11-05T18:34:57.749Z,19.23
2018-11-05T18:37:28.400Z,11.50
2018-11-05T18:39:59.093Z,14.38
2018-11-05T18:42:30.252Z,9.00
2018-11-05T18:45:05.941Z,14.50
2018-11-05T18:47:36.642Z,11.00
2018-11-05T18:50:10.904Z,9.73
2018-11-05T18:52:41.771Z,10.75
2018-11-05T18:55:13.903Z,12.68
2018-11-05T18:57:44.879Z,12.90
2018-11-05T19:00:22.736Z,12.07
2018-11-05T19:02:54.292Z,9.03
2018-11-05T19:05:26.049Z,9.20
2018-11-05T19:07:56.956Z,11.10
2018-11-05T19:10:27.680Z,20.10
2018-11-05T19:12:58.492Z,20.97
2018-11-05T19:15:29.200Z,25.80
2018-11-05T19:17:59.861Z,21.73
2018-11-05T19:20:31.158Z,31.30
2018-11-05T19:23:04.326Z,26.35
2018-11-05T19:25:34.939Z,21.73
2018-11-05T19:28:06.157Z,24.72
2018-11-05T19:30:36.870Z,25.75
2018-11-05T19:33:07.969Z,18.07
2018-11-05T19:35:38.711Z,30.12
2018-11-05T19:38:09.379Z,25.15
2018-11-05T19:40:40.063Z,22.48
2018-11-05T19:43:10.837Z,25.35
2018-11-05T19:45:41.543Z,24.15
2018-11-05T19:48:12.211Z,24.67
2018-11-05T19:50:42.939Z,28.30
2018-11-05T19:53:13.616Z,26.48
2018-11-05T19:55:45.335Z,24.30
2018-11-05T19:58:16.069Z,31.48
2018-11-05T20:00:46.912Z,34.30
2018-11-05T20:03:17.638Z,24.63
2018-11-05T20:05:48.394Z,29.55
2018-11-05T20:08:19.053Z,32.55
2018-11-05T20:10:49.693Z,34.67
2018-11-05T20:13:20.489Z,31.85
2018-11-05T20:15:51.748Z,33.65
2018-11-05T20:18:22.723Z,32.98
2018-11-05T20:20:53.489Z,36.60
2018-11-05T20:23:24.223Z,38.53
2018-11-05T20:25:55.184Z,37.73
2018-11-05T20:28:25.991Z,40.60
2018-11-05T20:30:56.698Z,41.00
2018-11-05T20:33:27.566Z,35.23
2018-11-05T20:35:58.262Z,50.63
2018-11-05T20:38:29.110Z,36.55
2018-11-05T20:40:59.834Z,34.92
2018-11-05T20:43:30.558Z,37.35
2018-11-05T20:46:03.205Z,32.73
2018-11-05T20:48:33.931Z,35.95
2018-11-05T20:51:05.431Z,33.45
2018-11-05T20:53:36.269Z,28.77
2018-11-05T20:56:06.946Z,33.02
2018-11-05T20:58:37.651Z,27.22
2018-11-05T21:01:10.085Z,33.28
2018-11-05T21:03:41.192Z,28.92
2018-11-05T21:06:11.918Z,23.90
2018-11-05T21:08:42.676Z,27.82
2018-11-05T21:11:13.412Z,28.77
2018-11-05T21:13:44.092Z,29.77
2018-11-05T21:16:14.795Z,28.15
2018-11-05T21:18:45.627Z,29.55
2018-11-05T21:21:16.601Z,25.37
2018-11-05T21:23:47.252Z,28.95
2018-11-05T21:26:17.960Z,23.77
2018-11-05T21:28:48.656Z,21.97
2018-11-05T21:31:19.387Z,31.60
2018-11-05T21:33:50.207Z,22.35
2018-11-05T21:36:20.950Z,23.52
2018-11-05T21:38:51.755Z,19.67
2018-11-05T21:41:22.561Z,21.35
2018-11-05T21:43:53.453Z,24.43
2018-11-05T21:46:24.201Z,17.57
2018-11-05T21:48:54.922Z,29.72
2018-11-05T21:51:25.592Z,20.65
2018-11-05T21:53:56.422Z,22.87
2018-11-05T21:56:27.277Z,22.42
2018-11-05T21:58:58.029Z,19.92
2018-11-05T22:01:28.742Z,20.68
2018-11-05T22:03:59.469Z,16.85
2018-11-05T22:06:30.258Z,15.58
2018-11-05T22:09:00.987Z,18.57
2018-11-05T22:11:34.708Z,20.25
2018-11-05T22:14:07.393Z,16.60
2018-11-05T22:16:38.264Z,19.37
2018-11-05T22:19:08.976Z,18.67
2018-11-05T22:21:40.607Z,20.15
2018-11-05T22:24:11.431Z,18.50
2018-11-05T22:26:42.278Z,19.60
2018-11-05T22:29:13.326Z,15.85
2018-11-05T22:31:44.608Z,17.00
2018-11-05T22:34:15.355Z,18.60
2018-11-05T22:36:46.034Z,15.50
2018-11-05T22:39:16.761Z,14.50
2018-11-05T22:41:47.502Z,15.13
2018-11-05T22:44:18.299Z,13.90
2018-11-05T22:46:50.104Z,14.60
2018-11-05T22:49:21.564Z,17.40
2018-11-05T22:51:52.325Z,16.60
2018-11-05T22:54:23.068Z,13.10
2018-11-05T22:56:53.880Z,17.37
2018-11-05T22:59:24.599Z,13.68
2018-11-05T23:01:55.945Z,17.67
2018-11-05T23:04:26.775Z,17.45
2018-11-05T23:06:57.502Z,17.25
2018-11-05T23:09:28.383Z,13.45
2018-11-05T23:11:59.376Z,15.70
2018-11-05T23:14:30.100Z,15.88
2018-11-05T23:17:00.838Z,11.48
2018-11-05T23:19:33.014Z,12.90
2018-11-05T23:22:06.829Z,13.68
2018-11-05T23:24:37.495Z,13.18
2018-11-05T23:27:09.008Z,14.13
2018-11-05T23:29:39.686Z,14.33
2018-11-05T23:32:10.377Z,16.45
2018-11-05T23:34:41.052Z,16.17
2018-11-05T23:37:11.780Z,11.85
2018-11-05T23:39:42.419Z,10.15
2018-11-05T23:42:13.199Z,9.23
2018-11-05T23:44:43.893Z,11.90
2018-11-05T23:47:14.557Z,13.90
2018-11-05T23:49:45.248Z,11.40
2018-11-05T23:52:16.742Z,13.40
2018-11-05T23:54:47.470Z,14.78
2018-11-05T23:57:18.108Z,12.20
2018-11-05T23:59:48.876Z,11.33
